createdAt,value
2023-05-07T00:00:38.334Z,100659.00
2023-05-07T00:03:05.869Z,100664.00
2023-05-07T00:05:33.322Z,100662.00
2023-05-07T00:08:01.564Z,100662.00
2023-05-07T00:10:29.050Z,100677.00
2023-05-07T00:12:56.593Z,100672.00
2023-05-07T00:15:24.170Z,100666.00
2023-05-07T00:17:51.678Z,100676.00
2023-05-07T00:20:19.241Z,100681.00
2023-05-07T00:22:46.728Z,100668.00
2023-05-07T00:25:14.985Z,100670.00
2023-05-07T00:27:42.431Z,100676.00
2023-05-07T00:30:10.947Z,100675.00
2023-05-07T00:32:39.053Z,100682.00
2023-05-07T00:35:08.029Z,100674.00
2023-05-07T00:37:35.428Z,100669.00
2023-05-07T00:40:04.919Z,100674.00
2023-05-07T00:42:33.305Z,100674.00
2023-05-07T00:45:00.953Z,100666.00
2023-05-07T00:47:28.486Z,100673.00
2023-05-07T00:49:56.263Z,100671.00
2023-05-07T00:52:26.765Z,100669.00
2023-05-07T00:54:55.372Z,100669.00
2023-05-07T00:57:25.695Z,100666.00
2023-05-07T00:59:54.333Z,100667.00
2023-05-07T01:02:22.658Z,100666.00
2023-05-07T01:04:50.076Z,100661.00
2023-05-07T01:07:18.301Z,100664.00
2023-05-07T01:09:45.771Z,100672.00
2023-05-07T01:12:13.808Z,100678.00
2023-05-07T01:14:41.384Z,100675.00
2023-05-07T01:17:10.083Z,100674.00
2023-05-07T01:19:37.703Z,100672.00
2023-05-07T01:22:10.844Z,100668.00
2023-05-07T01:24:39.335Z,100677.00
2023-05-07T01:27:06.958Z,100681.00
2023-05-07T01:29:34.593Z,100673.00
2023-05-07T01:32:03.452Z,100679.00
2023-05-07T01:34:35.746Z,100673.00
2023-05-07T01:37:03.868Z,100678.00
2023-05-07T01:39:33.182Z,100688.00
2023-05-07T01:42:01.455Z,100679.00
2023-05-07T01:44:29.243Z,100688.00
2023-05-07T01:46:57.713Z,100680.00
2023-05-07T01:49:25.492Z,100676.00
2023-05-07T01:51:53.545Z,100670.00
2023-05-07T01:54:25.640Z,100665.00
2023-05-07T01:56:53.134Z,100667.00
2023-05-07T01:59:21.303Z,100677.00
2023-05-07T02:01:48.793Z,100670.00
2023-05-07T02:04:16.422Z,100673.00
2023-05-07T02:06:44.080Z,100679.00
2023-05-07T02:09:11.896Z,100679.00
2023-05-07T02:11:39.411Z,100677.00
2023-05-07T02:14:06.922Z,100686.00
2023-05-07T02:16:35.132Z,100688.00
2023-05-07T02:19:02.624Z,100693.00
2023-05-07T02:21:31.195Z,100689.00
2023-05-07T02:23:58.851Z,100691.00
2023-05-07T02:26:26.434Z,100693.00
2023-05-07T02:28:54.184Z,100676.00
2023-05-07T02:31:21.713Z,100682.00
2023-05-07T02:33:50.104Z,100693.00
2023-05-07T02:36:17.630Z,100686.00
2023-05-07T02:38:45.064Z,100686.00
2023-05-07T02:41:12.558Z,100695.00
2023-05-07T02:43:40.052Z,100692.00
2023-05-07T02:46:09.250Z,100693.00
2023-05-07T02:48:37.261Z,100687.00
2023-05-07T02:51:06.454Z,100698.00
2023-05-07T02:53:33.964Z,100690.00
2023-05-07T02:56:02.738Z,100696.00
2023-05-07T02:58:30.228Z,100690.00
2023-05-07T03:00:57.752Z,100691.00
2023-05-07T03:03:25.363Z,100689.00
2023-05-07T03:05:52.878Z,100693.00
2023-05-07T03:08:21.064Z,100679.00
2023-05-07T03:10:48.945Z,100678.00
2023-05-07T03:13:16.475Z,100684.00
2023-05-07T03:15:44.095Z,100690.00
2023-05-07T03:18:11.613Z,100696.00
2023-05-07T03:20:39.257Z,100697.00
2023-05-07T03:23:06.728Z,100699.00
2023-05-07T03:25:34.843Z,100708.00
2023-05-07T03:28:02.338Z,100707.00
2023-05-07T03:30:30.063Z,100698.00
2023-05-07T03:32:57.572Z,100714.00
2023-05-07T03:35:25.181Z,100705.00
2023-05-07T03:37:52.645Z,100707.00
2023-05-07T03:40:20.184Z,100702.00
2023-05-07T03:42:48.514Z,100714.00
2023-05-07T03:45:16.084Z,100714.00
2023-05-07T03:47:43.883Z,100711.00
2023-05-07T03:50:12.100Z,100714.00
2023-05-07T03:52:39.697Z,100711.00
2023-05-07T03:55:07.916Z,100711.00
2023-05-07T03:57:35.409Z,100715.00
2023-05-07T04:00:04.893Z,100716.00
2023-05-07T04:02:32.677Z,100712.00
2023-05-07T04:05:00.370Z,100718.00
2023-05-07T04:07:27.807Z,100722.00
2023-05-07T04:09:55.315Z,100711.00
2023-05-07T04:12:22.758Z,100722.00
2023-05-07T04:14:50.255Z,100727.00
2023-05-07T04:17:18.468Z,100722.00
2023-05-07T04:19:45.967Z,100720.00
2023-05-07T04:22:13.483Z,100731.00
2023-05-07T04:24:40.948Z,100726.00
2023-05-07T04:27:08.495Z,100730.00
2023-05-07T04:29:35.932Z,100735.00
2023-05-07T04:32:03.436Z,100736.00
2023-05-07T04:34:31.631Z,100735.00
2023-05-07T04:37:00.875Z,100755.00
2023-05-07T04:39:28.302Z,100755.00
2023-05-07T04:41:56.070Z,100749.00
2023-05-07T04:44:23.567Z,100756.00
2023-05-07T04:46:51.056Z,100748.00
2023-05-07T04:49:18.510Z,100743.00
2023-05-07T04:51:46.966Z,100750.00
2023-05-07T04:54:14.488Z,100753.00
2023-05-07T04:56:41.943Z,100750.00
2023-05-07T04:59:09.510Z,100751.00
2023-05-07T05:01:37.000Z,100760.00
2023-05-07T05:04:04.595Z,100754.00
2023-05-07T05:06:32.597Z,100753.00
2023-05-07T05:09:00.801Z,100763.00
2023-05-07T05:11:28.256Z,100765.00
2023-05-07T05:13:55.670Z,100761.00
2023-05-07T05:16:23.209Z,100754.00
2023-05-07T05:18:52.383Z,100756.00
2023-05-07T05:21:19.848Z,100755.00
2023-05-07T05:23:47.511Z,100757.00
2023-05-07T05:26:15.700Z,100752.00
2023-05-07T05:28:43.218Z,100760.00
2023-05-07T05:31:10.700Z,100772.00
2023-05-07T05:33:38.243Z,100781.00
2023-05-07T05:36:06.664Z,100779.00
2023-05-07T05:38:34.168Z,100783.00
2023-05-07T05:41:01.623Z,100779.00
2023-05-07T05:43:29.757Z,100786.00
2023-05-07T05:45:58.059Z,100793.00
2023-05-07T05:48:26.045Z,100786.00
2023-05-07T05:50:53.537Z,100791.00
2023-05-07T05:53:21.075Z,100793.00
2023-05-07T05:55:48.755Z,100792.00
2023-05-07T05:58:16.732Z,100793.00
2023-05-07T06:00:45.318Z,100801.00
2023-05-07T06:03:14.422Z,100804.00
2023-05-07T06:05:42.052Z,100804.00
2023-05-07T06:08:09.925Z,100801.00
2023-05-07T06:10:38.022Z,100816.00
2023-05-07T06:13:05.543Z,100816.00
2023-05-07T06:15:33.033Z,100829.00
2023-05-07T06:18:01.170Z,100825.00
2023-05-07T06:20:28.744Z,100826.00
2023-05-07T06:22:56.174Z,100814.00
2023-05-07T06:25:23.708Z,100814.00
2023-05-07T06:27:51.223Z,100815.00
2023-05-07T06:30:18.732Z,100816.00
2023-05-07T06:32:46.251Z,100822.00
2023-05-07T06:35:14.518Z,100825.00
2023-05-07T06:37:43.017Z,100830.00
2023-05-07T06:40:11.782Z,100847.00
2023-05-07T06:42:39.416Z,100838.00
2023-05-07T06:45:08.735Z,100849.00
2023-05-07T06:47:36.206Z,100835.00
2023-05-07T06:50:04.080Z,100845.00
2023-05-07T06:52:32.356Z,100844.00
2023-05-07T06:55:00.440Z,100854.00
2023-05-07T06:57:27.989Z,100859.00
2023-05-07T06:59:55.651Z,100857.00
2023-05-07T07:02:23.108Z,100849.00
2023-05-07T07:04:50.635Z,100844.00
2023-05-07T07:07:18.139Z,100848.00
2023-05-07T07:09:46.369Z,100846.00
2023-05-07T07:12:13.839Z,100844.00
2023-05-07T07:14:41.288Z,100856.00
2023-05-07T07:17:08.731Z,100855.00
2023-05-07T07:19:36.450Z,100854.00
2023-05-07T07:22:03.865Z,100854.00
2023-05-07T07:24:31.331Z,100854.00
2023-05-07T07:26:59.432Z,100863.00
2023-05-07T07:29:27.482Z,100853.00
2023-05-07T07:31:55.168Z,100851.00
2023-05-07T07:34:22.682Z,100855.00
2023-05-07T07:36:50.201Z,100865.00
2023-05-07T07:39:17.682Z,100861.00
2023-05-07T07:41:45.084Z,100866.00
2023-05-07T07:44:15.367Z,100874.00
2023-05-07T07:46:43.882Z,100865.00
2023-05-07T07:49:11.446Z,100873.00
2023-05-07T07:51:38.958Z,100870.00
2023-05-07T07:54:06.641Z,100869.00
2023-05-07T07:56:34.493Z,100882.00
2023-05-07T07:59:02.168Z,100883.00
2023-05-07T08:01:31.814Z,100876.00
2023-05-07T08:03:59.542Z,100885.00
2023-05-07T08:06:27.358Z,100879.00
2023-05-07T08:08:54.853Z,100880.00
2023-05-07T08:11:22.517Z,100895.00
2023-05-07T08:13:50.744Z,100906.00
2023-05-07T08:16:18.291Z,100894.00
2023-05-07T08:18:46.522Z,100903.00
2023-05-07T08:21:14.055Z,100902.00
2023-05-07T08:23:41.579Z,100901.00
2023-05-07T08:26:09.562Z,100911.00
2023-05-07T08:28:37.432Z,100900.00
2023-05-07T08:31:05.239Z,100897.00
2023-05-07T08:33:33.063Z,100892.00
2023-05-07T08:36:01.390Z,100896.00
2023-05-07T08:38:28.925Z,100905.00
2023-05-07T08:40:56.619Z,100899.00
2023-05-07T08:43:27.436Z,100895.00
2023-05-07T08:45:56.346Z,100902.00
2023-05-07T08:48:43.101Z,100899.00
2023-05-07T08:51:19.981Z,100904.00
2023-05-07T08:53:51.842Z,100904.00
2023-05-07T08:56:25.513Z,100909.00
2023-05-07T08:59:06.493Z,100912.00
2023-05-07T09:01:39.424Z,100923.00
2023-05-07T09:04:28.367Z,100916.00
2023-05-07T09:07:19.629Z,100912.00
2023-05-07T09:10:09.700Z,100913.00
2023-05-07T09:12:50.070Z,100917.00
2023-05-07T09:15:27.729Z,100931.00
2023-05-07T09:17:55.581Z,100930.00
2023-05-07T09:20:23.554Z,100937.00
2023-05-07T09:22:52.173Z,100935.00
2023-05-07T09:25:39.165Z,100941.00
2023-05-07T09:28:13.382Z,100935.00
2023-05-07T09:30:41.054Z,100932.00
2023-05-07T09:33:13.208Z,100934.00
2023-05-07T09:36:02.559Z,100929.00
2023-05-07T09:38:43.920Z,100931.00
2023-05-07T09:41:14.336Z,100937.00
2023-05-07T09:43:57.561Z,100941.00
2023-05-07T09:46:46.426Z,100949.00
2023-05-07T09:49:19.784Z,100933.00
2023-05-07T09:51:54.018Z,100939.00
2023-05-07T09:54:22.399Z,100946.00
2023-05-07T09:56:58.308Z,100952.00
2023-05-07T09:59:35.394Z,100954.00
2023-05-07T10:02:06.684Z,100952.00
2023-05-07T10:04:38.651Z,100953.00
2023-05-07T10:07:08.202Z,100944.00
2023-05-07T10:09:39.158Z,100955.00
2023-05-07T10:12:08.039Z,100951.00
2023-05-07T10:14:43.306Z,100944.00
2023-05-07T10:17:22.391Z,100953.00
2023-05-07T10:19:57.149Z,100954.00
2023-05-07T10:22:30.417Z,100958.00
2023-05-07T10:25:03.366Z,100959.00
2023-05-07T10:31:15.270Z,100938.00
2023-05-07T10:33:45.258Z,100945.00
2023-05-07T10:36:13.802Z,100955.00
2023-05-07T10:38:41.894Z,100951.00
2023-05-07T10:41:15.776Z,100944.00
2023-05-07T10:43:44.551Z,100933.00
2023-05-07T11:41:21.008Z,100931.00
2023-05-07T11:43:59.254Z,100935.00
2023-05-07T11:46:27.667Z,100947.00
2023-05-07T11:48:57.535Z,100939.00
2023-05-07T11:51:27.161Z,100933.00
2023-05-07T11:53:54.793Z,100934.00
2023-05-07T11:56:23.145Z,100929.00
2023-05-07T11:58:52.405Z,100932.00
2023-05-07T12:01:19.771Z,100938.00
2023-05-07T12:03:47.657Z,100940.00
2023-05-07T12:06:17.071Z,100933.00
2023-05-07T12:08:47.892Z,100939.00
2023-05-07T12:11:18.517Z,100934.00
2023-05-07T12:13:46.984Z,100941.00
2023-05-07T12:16:14.930Z,100948.00
2023-05-07T12:18:42.968Z,100932.00
2023-05-07T12:21:11.356Z,100936.00
2023-05-07T12:23:39.634Z,100935.00
2023-05-07T12:26:08.201Z,100938.00
2023-05-07T12:28:39.893Z,100940.00
2023-05-07T12:31:09.417Z,100940.00
2023-05-07T12:33:37.456Z,100950.00
2023-05-07T12:36:08.072Z,100960.00
2023-05-07T12:38:40.320Z,100950.00
2023-05-07T12:41:09.496Z,100946.00
2023-05-07T12:43:36.976Z,100939.00
2023-05-07T12:46:06.738Z,100949.00
2023-05-07T12:48:36.755Z,100935.00
2023-05-07T12:51:06.442Z,100932.00
2023-05-07T12:53:34.151Z,100950.00
2023-05-07T12:56:01.581Z,100936.00
2023-05-07T12:58:31.896Z,100946.00
2023-05-07T13:01:02.213Z,100936.00
2023-05-07T13:03:31.505Z,100937.00
2023-05-07T13:06:02.183Z,100943.00
2023-05-07T13:08:32.069Z,100934.00
2023-05-07T13:11:04.026Z,100930.00
2023-05-07T13:13:32.828Z,100926.00
2023-05-07T13:16:00.934Z,100934.00
2023-05-07T13:18:30.516Z,100920.00
2023-05-07T13:20:59.486Z,100922.00
2023-05-07T13:23:26.897Z,100919.00
2023-05-07T13:25:54.904Z,100918.00
2023-05-07T13:28:22.650Z,100922.00
2023-05-07T13:30:52.071Z,100911.00
2023-05-07T13:33:19.823Z,100906.00
2023-05-07T13:35:47.186Z,100906.00
2023-05-07T13:38:16.253Z,100909.00
2023-05-07T13:40:43.645Z,100916.00
2023-05-07T13:43:11.739Z,100919.00
2023-05-07T13:45:39.513Z,100927.00
2023-05-07T13:48:07.410Z,100912.00
2023-05-07T13:50:35.612Z,100910.00
2023-05-07T13:53:03.577Z,100931.00
2023-05-07T13:55:32.365Z,100921.00
2023-05-07T13:58:00.968Z,100923.00
2023-05-07T14:00:29.277Z,100926.00
2023-05-07T14:02:57.474Z,100914.00
2023-05-07T14:05:25.401Z,100919.00
2023-05-07T14:07:54.468Z,100919.00
2023-05-07T14:10:21.962Z,100919.00
2023-05-07T14:12:50.408Z,100924.00
2023-05-07T14:15:18.087Z,100915.00
2023-05-07T14:17:46.258Z,100917.00
2023-05-07T14:20:52.054Z,100909.00
2023-05-07T14:23:29.796Z,100909.00
2023-05-07T14:26:11.111Z,100917.00
2023-05-07T14:28:39.874Z,100907.00
2023-05-07T14:31:07.255Z,100910.00
2023-05-07T14:33:34.674Z,100900.00
2023-05-07T14:36:02.999Z,100900.00
2023-05-07T14:38:30.981Z,100890.00
2023-05-07T14:40:58.672Z,100902.00
2023-05-07T14:43:26.039Z,100904.00
2023-05-07T14:45:54.470Z,100912.00
2023-05-07T14:48:21.887Z,100906.00
2023-05-07T14:50:49.980Z,100909.00
2023-05-07T14:53:17.548Z,100898.00
2023-05-07T14:55:45.020Z,100912.00
2023-05-07T14:58:12.503Z,100904.00
2023-05-07T15:00:39.950Z,100905.00
2023-05-07T15:03:09.715Z,100905.00
2023-05-07T15:05:37.520Z,100904.00
2023-05-07T15:08:05.552Z,100916.00
2023-05-07T15:10:40.558Z,100914.00
2023-05-07T15:13:08.446Z,100918.00
2023-05-07T15:15:35.978Z,100917.00
2023-05-07T15:18:03.769Z,100917.00
2023-05-07T15:20:32.283Z,100921.00
2023-05-07T15:22:59.805Z,100930.00
2023-05-07T15:25:27.213Z,100927.00
2023-05-07T15:27:54.584Z,100926.00
2023-05-07T15:30:21.935Z,100920.00
2023-05-07T15:32:50.270Z,100916.00
2023-05-07T15:35:22.069Z,100915.00
2023-05-07T15:37:50.888Z,100921.00
2023-05-07T15:40:18.665Z,100927.00
2023-05-07T15:42:46.831Z,100924.00
2023-05-07T15:45:14.496Z,100933.00
2023-05-07T15:47:41.957Z,100929.00
2023-05-07T15:50:10.403Z,100932.00
2023-05-07T15:52:38.810Z,100932.00
2023-05-07T15:55:08.841Z,100924.00
2023-05-07T15:57:36.489Z,100926.00
2023-05-07T16:00:06.202Z,100941.00
2023-05-07T16:02:33.564Z,100920.00
2023-05-07T16:05:01.032Z,100940.00
2023-05-07T16:07:28.526Z,100947.00
2023-05-07T16:09:55.882Z,100954.00
2023-05-07T16:12:23.996Z,100946.00
2023-05-07T16:14:51.515Z,100947.00
2023-05-07T16:17:18.890Z,100950.00
2023-05-07T16:19:46.301Z,100944.00
2023-05-07T16:22:16.122Z,100939.00
2023-05-07T16:24:43.630Z,100944.00
2023-05-07T16:27:10.978Z,100948.00
2023-05-07T16:29:39.922Z,100947.00
2023-05-07T16:32:07.588Z,100939.00
2023-05-07T16:34:35.030Z,100949.00
2023-05-07T16:37:04.150Z,100949.00
2023-05-07T16:39:31.725Z,100956.00
2023-05-07T16:41:59.183Z,100962.00
2023-05-07T16:44:26.777Z,100952.00
2023-05-07T16:46:55.297Z,100964.00
2023-05-07T16:49:22.905Z,100965.00
2023-05-07T16:51:50.267Z,100952.00
2023-05-07T16:54:17.565Z,100952.00
2023-05-07T16:56:45.206Z,100948.00
2023-05-07T16:59:12.590Z,100950.00
2023-05-07T17:01:41.993Z,100948.00
2023-05-07T17:04:10.206Z,100958.00
2023-05-07T17:06:37.656Z,100953.00
2023-05-07T17:09:05.086Z,100964.00
2023-05-07T17:11:33.354Z,100957.00
2023-05-07T17:14:01.114Z,100965.00
2023-05-07T17:16:29.449Z,100962.00
2023-05-07T17:18:56.928Z,100967.00
2023-05-07T17:21:25.372Z,100968.00
2023-05-07T17:23:52.748Z,100972.00
2023-05-07T17:26:20.558Z,100981.00
2023-05-07T17:28:47.835Z,100975.00
2023-05-07T17:31:15.194Z,100975.00
2023-05-07T17:33:42.494Z,100983.00
2023-05-07T17:36:10.073Z,100987.00
2023-05-07T17:38:38.474Z,100986.00
2023-05-07T17:41:06.072Z,100980.00
2023-05-07T17:43:33.510Z,100973.00
2023-05-07T17:46:02.291Z,100970.00
2023-05-07T17:48:30.265Z,100974.00
2023-05-07T17:51:02.781Z,100978.00
2023-05-07T17:53:30.254Z,100968.00
2023-05-07T17:55:58.207Z,100965.00
2023-05-07T17:58:26.512Z,100974.00
2023-05-07T18:00:54.618Z,100970.00
2023-05-07T18:03:23.948Z,100968.00
2023-05-07T18:05:51.767Z,100967.00
2023-05-07T18:08:20.863Z,100974.00
2023-05-07T18:10:48.269Z,100978.00
2023-05-07T18:13:16.733Z,100985.00
2023-05-07T18:15:46.171Z,100977.00
2023-05-07T18:18:15.232Z,100984.00
2023-05-07T18:20:42.867Z,100989.00
2023-05-07T18:23:10.327Z,100987.00
2023-05-07T18:25:37.852Z,100999.00
2023-05-07T18:28:05.498Z,100996.00
2023-05-07T18:30:33.717Z,100995.00
2023-05-07T18:33:01.122Z,100986.00
2023-05-07T18:35:28.674Z,100996.00
2023-05-07T18:37:56.249Z,101000.00
2023-05-07T18:40:23.722Z,101011.00
2023-05-07T18:42:51.208Z,101012.00
2023-05-07T18:45:19.144Z,101012.00
2023-05-07T18:47:47.948Z,101012.00
2023-05-07T18:50:15.819Z,101020.00
2023-05-07T18:52:43.348Z,101030.00
2023-05-07T18:55:11.215Z,101031.00
2023-05-07T18:57:38.667Z,101033.00
2023-05-07T19:00:08.627Z,101031.00
2023-05-07T19:02:36.281Z,101035.00
2023-05-07T19:05:05.234Z,101024.00
2023-05-07T19:07:32.869Z,101026.00
2023-05-07T19:10:05.536Z,101016.00
2023-05-07T19:12:33.797Z,101027.00
2023-05-07T19:15:01.182Z,101032.00
2023-05-07T19:17:28.750Z,101023.00
2023-05-07T19:19:56.240Z,101035.00
2023-05-07T19:22:24.595Z,101038.00
2023-05-07T19:24:53.045Z,101042.00
2023-05-07T19:27:20.946Z,101041.00
2023-05-07T19:29:48.700Z,101051.00
2023-05-07T19:32:16.593Z,101048.00
2023-05-07T19:34:44.480Z,101060.00
2023-05-07T19:37:12.194Z,101057.00
2023-05-07T19:39:40.314Z,101062.00
2023-05-07T19:42:07.878Z,101059.00
2023-05-07T19:44:35.287Z,101064.00
2023-05-07T19:47:03.089Z,101070.00
2023-05-07T19:49:30.483Z,101075.00
2023-05-07T19:51:57.974Z,101070.00
2023-05-07T19:54:25.287Z,101070.00
2023-05-07T19:56:54.949Z,101073.00
2023-05-07T19:59:22.945Z,101078.00
2023-05-07T20:01:50.407Z,101083.00
2023-05-07T20:04:17.943Z,101077.00
2023-05-07T20:06:45.263Z,101084.00
2023-05-07T20:09:13.010Z,101087.00
2023-05-07T20:11:40.543Z,101091.00
2023-05-07T20:14:09.414Z,101090.00
2023-05-07T20:16:37.005Z,101092.00
2023-05-07T20:19:04.751Z,101086.00
2023-05-07T20:21:32.296Z,101094.00
2023-05-07T20:23:59.706Z,101106.00
2023-05-07T20:26:27.240Z,101105.00
2023-05-07T20:28:54.832Z,101100.00
2023-05-07T20:31:23.093Z,101095.00
2023-05-07T20:33:50.526Z,101096.00
2023-05-07T20:36:17.875Z,101101.00
2023-05-07T20:38:45.468Z,101100.00
2023-05-07T20:41:13.627Z,101103.00
2023-05-07T20:43:41.523Z,101103.00
2023-05-07T20:46:09.090Z,101104.00
2023-05-07T20:48:37.343Z,101110.00
2023-05-07T20:51:04.708Z,101108.00
2023-05-07T20:53:32.704Z,101111.00
2023-05-07T20:56:00.500Z,101107.00
2023-05-07T20:58:28.786Z,101116.00
2023-05-07T21:00:56.737Z,101113.00
2023-05-07T21:03:24.519Z,101106.00
2023-05-07T21:05:53.049Z,101118.00
2023-05-07T21:08:20.494Z,101109.00
2023-05-07T21:10:48.373Z,101109.00
2023-05-07T21:13:16.258Z,101119.00
2023-05-07T21:15:43.627Z,101115.00
2023-05-07T21:18:11.330Z,101117.00
2023-05-07T21:20:39.278Z,101116.00
2023-05-07T21:23:07.578Z,101113.00
2023-05-07T21:25:38.406Z,101116.00
2023-05-07T21:28:06.721Z,101116.00
2023-05-07T21:30:38.377Z,101131.00
2023-05-07T21:33:17.987Z,101114.00
2023-05-07T21:35:54.522Z,101123.00
2023-05-07T21:38:22.784Z,101117.00
2023-05-07T21:40:50.299Z,101119.00
2023-05-07T21:43:17.892Z,101117.00
2023-05-07T21:45:49.038Z,101118.00
2023-05-07T21:48:17.917Z,101123.00
2023-05-07T21:50:58.916Z,101128.00
2023-05-07T21:53:31.157Z,101128.00
2023-05-07T21:56:02.405Z,101133.00
2023-05-07T21:58:30.690Z,101122.00
2023-05-07T22:01:08.787Z,101126.00
2023-05-07T22:03:36.290Z,101123.00
2023-05-07T22:06:04.092Z,101126.00
2023-05-07T22:08:32.290Z,101118.00
2023-05-07T22:10:59.880Z,101126.00
2023-05-07T22:13:27.512Z,101118.00
2023-05-07T22:15:57.938Z,101125.00
2023-05-07T22:18:26.166Z,101128.00
2023-05-07T22:20:53.694Z,101120.00
2023-05-07T22:23:21.470Z,101134.00
2023-05-07T22:25:49.708Z,101129.00
2023-05-07T22:28:17.134Z,101133.00
2023-05-07T22:30:44.737Z,101128.00
2023-05-07T22:33:12.631Z,101132.00
2023-05-07T22:35:40.082Z,101118.00
2023-05-07T22:38:07.661Z,101126.00
2023-05-07T22:40:35.260Z,101119.00
2023-05-07T22:43:03.407Z,101120.00
2023-05-07T22:45:30.930Z,101127.00
2023-05-07T22:47:58.518Z,101120.00
2023-05-07T22:50:26.099Z,101126.00
2023-05-07T22:52:53.540Z,101118.00
2023-05-07T22:55:21.176Z,101132.00
2023-05-07T22:57:49.123Z,101127.00
2023-05-07T23:00:17.593Z,101123.00
2023-05-07T23:02:45.201Z,101119.00
2023-05-07T23:05:12.761Z,101121.00
2023-05-07T23:07:40.417Z,101131.00
2023-05-07T23:10:08.931Z,101121.00
2023-05-07T23:12:36.503Z,101114.00
2023-05-07T23:15:04.511Z,101110.00
2023-05-07T23:17:33.760Z,101121.00
2023-05-07T23:20:01.290Z,101110.00
2023-05-07T23:22:28.848Z,101119.00
2023-05-07T23:24:56.335Z,101119.00
2023-05-07T23:27:23.795Z,101117.00
2023-05-07T23:29:51.247Z,101114.00
2023-05-07T23:32:18.749Z,101123.00
2023-05-07T23:34:50.185Z,101132.00
2023-05-07T23:37:18.212Z,101123.00
2023-05-07T23:39:45.687Z,101123.00
2023-05-07T23:42:13.495Z,101114.00
2023-05-07T23:44:40.956Z,101121.00
2023-05-07T23:47:08.431Z,101125.00
2023-05-07T23:49:35.892Z,101123.00
2023-05-07T23:52:04.113Z,101113.00
2023-05-07T23:54:31.630Z,101108.00
2023-05-07T23:56:59.160Z,101107.00
2023-05-07T23:59:26.692Z,101116.00
